Time;durP1;ratioP1;P1;durP2;ratioP2;P2;SDS_P1;SDS_P2;PMS_P1;PMS_P2;Temp;Humidity;BMP_temperature;BMP_pressure;BME280_temperature;BME280_humidity;BME280_pressure;Samples;Min_cycle;Max_cycle;Signal;HPM_P1;HPM_P2
2022/08/19 00:01:46;;;;;;;20.02;14.40;;;;;;;21.83;72.61;99986.31;1701462;84;25463;-70
2022/08/19 00:04:16;;;;;;;15.90;13.65;;;;;;;21.79;72.62;99981.38;1728958;83;28078;-70
2022/08/19 00:06:46;;;;;;;22.67;14.78;;;;;;;21.75;72.63;99980.00;1728805;82;25565;-70
2022/08/19 00:09:15;;;;;;;19.45;15.48;;;;;;;21.74;72.73;99979.02;1741364;81;25537;-70
2022/08/19 00:11:43;;;;;;;18.15;14.85;;;;;;;21.70;72.90;99969.98;1743463;82;25609;-71
2022/08/19 00:14:13;;;;;;;23.07;15.13;;;;;;;21.65;72.85;99976.66;1743529;82;25650;-71
2022/08/19 00:16:41;;;;;;;21.50;15.78;;;;;;;21.62;73.12;99975.48;1743561;82;27479;-70
2022/08/19 00:19:09;;;;;;;18.57;14.80;;;;;;;21.60;73.30;99978.42;1731568;82;25649;-68
2022/08/19 00:21:39;;;;;;;18.50;16.42;;;;;;;21.56;73.25;99982.55;1761927;80;25452;-70
2022/08/19 00:24:06;;;;;;;22.23;16.57;;;;;;;21.53;73.37;99977.82;1731667;82;25505;-70
2022/08/19 00:26:33;;;;;;;19.52;15.32;;;;;;;21.50;73.41;99979.97;1762091;81;25538;-70
2022/08/19 00:29:00;;;;;;;16.55;14.53;;;;;;;21.46;73.41;99973.66;1731708;82;27470;-70
2022/08/19 00:31:27;;;;;;;20.70;15.20;;;;;;;21.43;73.79;99972.47;1761850;81;25642;-70
2022/08/19 00:33:55;;;;;;;20.62;15.28;;;;;;;21.41;73.97;99984.45;1731678;82;25417;-70
2022/08/19 00:36:21;;;;;;;17.48;15.00;;;;;;;21.38;73.99;99985.23;1761973;81;25588;-70
2022/08/19 00:38:51;;;;;;;21.77;15.30;;;;;;;21.34;74.05;99983.67;1731742;82;25560;-70
2022/08/19 00:41:21;;;;;;;17.82;14.63;;;;;;;21.32;74.11;99979.13;1734141;81;27576;-70
2022/08/19 00:44:07;;;;;;;18.48;15.18;;;;;;;21.31;74.11;99983.84;1731653;82;25465;-70
2022/08/19 00:46:36;;;;;;;17.60;14.63;;;;;;;21.29;74.35;99990.92;1762137;81;25440;-70
2022/08/19 00:49:06;;;;;;;;;;;;;;;21.25;74.24;99992.30;1734229;82;25559;-69
2022/08/19 00:51:32;;;;;;;20.52;14.38;;;;;;;21.22;74.49;99992.47;1758707;81;25618;-69
2022/08/19 00:54:00;;;;;;;19.25;15.13;;;;;;;21.18;74.38;99986.19;1731712;82;29726;-69
2022/08/19 00:56:28;;;;;;;20.60;16.02;;;;;;;21.15;74.58;99989.70;1733830;81;25603;-69
2022/08/19 00:58:57;;;;;;;21.48;15.90;;;;;;;21.14;74.75;99992.84;1704930;82;25487;-69
2022/08/19 01:01:23;;;;;;;17.87;15.45;;;;;;;21.11;74.95;99990.86;1762006;81;34766;-69
2022/08/19 01:03:50;;;;;;;17.10;15.30;;;;;;;21.08;74.98;99987.72;1731641;82;25459;-69
2022/08/19 01:06:17;;;;;;;18.42;14.87;;;;;;;21.05;75.05;99987.11;1761963;81;28079;-69
2022/08/19 01:08:43;;;;;;;18.82;15.90;;;;;;;21.02;75.13;99985.13;1731443;82;25639;-69
2022/08/19 01:11:09;;;;;;;19.27;15.28;;;;;;;21.00;75.08;99986.70;1761961;81;25472;-69
2022/08/19 01:13:36;;;;;;;17.37;14.98;;;;;;;20.97;75.13;99992.38;1731593;82;26212;-69
2022/08/19 01:16:07;;;;;;;18.62;14.70;;;;;;;20.94;75.18;99990.39;1761941;81;25478;-69
2022/08/19 01:18:38;;;;;;;20.15;14.38;;;;;;;20.92;75.35;99989.22;1731775;82;27503;-70
2022/08/19 01:21:28;;;;;;;19.80;14.90;;;;;;;20.88;75.54;99987.84;1761845;81;25846;-70
2022/08/19 01:23:54;;;;;;;18.52;14.65;;;;;;;20.85;75.44;99990.76;1731295;82;25409;-70
2022/08/19 01:26:25;;;;;;;17.02;15.23;;;;;;;20.81;75.56;99989.19;1761818;81;25583;-70
2022/08/19 01:28:55;;;;;;;17.73;13.88;;;;;;;20.80;75.78;99991.72;1731625;82;25480;-70
2022/08/19 01:31:26;;;;;;;19.27;14.87;;;;;;;20.78;75.90;99994.86;1761929;81;27479;-70
2022/08/19 01:33:57;;;;;;;20.00;15.05;;;;;;;20.76;75.86;99990.94;1731570;82;25646;-70
2022/08/19 01:36:41;;;;;;;17.70;14.78;;;;;;;20.77;76.02;99993.30;1742657;82;25571;-70
2022/08/19 01:39:13;;;;;;;20.08;15.15;;;;;;;20.74;76.02;99987.19;1731540;82;25680;-70
2022/08/19 01:41:39;;;;;;;19.15;15.85;;;;;;;20.73;76.17;99992.48;1761404;81;25459;-70
2022/08/19 01:44:08;;;;;;;18.85;15.72;;;;;;;20.72;76.47;99995.02;1731603;82;27416;-70
2022/08/19 01:46:35;;;;;;;19.15;15.13;;;;;;;20.70;76.62;99998.73;1761870;81;32807;-70
2022/08/19 01:49:04;;;;;;;17.75;14.65;;;;;;;20.68;76.73;99997.75;1731618;82;25477;-71
2022/08/19 01:51:30;;;;;;;20.05;15.50;;;;;;;20.69;76.79;100002.67;1761952;80;25640;-71
2022/08/19 01:53:57;;;;;;;16.65;14.95;;;;;;;20.67;76.92;100003.63;1731624;82;25402;-71
2022/08/19 01:56:24;;;;;;;17.15;15.03;;;;;;;20.67;77.06;99998.12;1761874;81;27457;-71
2022/08/19 01:58:55;;;;;;;17.02;15.20;;;;;;;20.67;77.02;99996.19;1704636;82;25619;-71
2022/08/19 02:01:21;;;;;;;21.20;15.45;;;;;;;20.65;76.97;99995.79;1760753;81;25574;-71
2022/08/19 02:03:48;;;;;;;19.27;16.20;;;;;;;20.63;77.06;99995.36;1731601;82;25610;-71
2022/08/19 02:06:16;;;;;;;21.85;15.63;;;;;;;20.63;77.07;99995.36;1761879;81;25568;-71
2022/08/19 02:08:45;;;;;;;18.07;14.98;;;;;;;20.61;77.20;99997.69;1729285;82;27481;-71
2022/08/19 02:11:20;;;;;;;;;;;;;;;20.59;77.29;99989.64;1748161;82;25579;-71
2022/08/19 02:13:46;;;;;;;20.50;14.95;;;;;;;20.57;77.63;99988.64;1745554;81;25540;-71
2022/08/19 02:16:13;;;;;;;16.90;14.93;;;;;;;20.53;77.43;99979.58;1745503;82;26121;-71
2022/08/19 02:18:39;;;;;;;19.15;16.20;;;;;;;20.51;77.66;99978.59;1745582;82;25404;-71
2022/08/19 02:21:06;;;;;;;20.68;15.43;;;;;;;20.50;77.76;99974.28;1726152;83;28037;-71
2022/08/19 02:23:32;;;;;;;18.40;16.20;;;;;;;20.49;77.89;99974.06;1745394;82;25461;-71
2022/08/19 02:25:58;;;;;;;17.57;15.45;;;;;;;20.49;77.95;99975.44;1745522;82;25434;-71
2022/08/19 02:28:24;;;;;;;21.40;16.30;;;;;;;20.48;77.98;99969.77;1726053;83;25655;-71
2022/08/19 02:30:50;;;;;;;19.60;16.77;;;;;;;20.48;78.04;99972.52;1745595;81;25581;-71
2022/08/19 02:33:17;;;;;;;21.02;16.23;;;;;;;20.47;78.08;99972.89;1726131;83;27537;-71
2022/08/19 02:35:45;;;;;;;18.17;15.45;;;;;;;20.45;78.29;99971.90;1745400;82;25393;-71
2022/08/19 02:38:27;;;;;;;20.60;16.15;;;;;;;20.45;78.12;99970.53;1745657;82;25611;-71
2022/08/19 02:41:01;;;;;;;19.07;16.12;;;;;;;20.44;78.17;99971.69;1726086;83;25642;-71
2022/08/19 02:43:30;;;;;;;21.52;16.00;;;;;;;20.44;78.42;99978.55;1745635;82;25459;-71
2022/08/19 02:45:56;;;;;;;17.73;15.85;;;;;;;20.42;78.37;99974.62;1745653;82;28024;-71
2022/08/19 02:48:25;;;;;;;17.85;15.95;;;;;;;20.41;78.34;99974.41;1745381;82;25442;-71
2022/08/19 02:50:56;;;;;;;21.82;15.70;;;;;;;20.39;78.52;99974.02;1745668;81;29828;-71
2022/08/19 02:53:26;;;;;;;17.30;15.30;;;;;;;20.38;78.65;99974.61;1717000;82;25488;-71
2022/08/19 02:55:54;;;;;;;19.17;16.07;;;;;;;20.34;78.79;99975.94;1726153;83;25636;-71
2022/08/19 02:58:22;;;;;;;20.08;16.05;;;;;;;20.33;78.58;99977.13;1745505;81;27708;-71
2022/08/19 03:00:53;;;;;;;20.60;15.65;;;;;;;20.31;78.51;99979.47;1745570;82;25595;-71
2022/08/19 03:03:21;;;;;;;20.92;16.37;;;;;;;20.31;78.70;99980.04;1745498;81;25590;-71
2022/08/19 03:05:47;;;;;;;20.52;15.60;;;;;;;20.28;78.95;99976.70;1726061;83;25618;-71
2022/08/19 03:08:14;;;;;;;19.07;16.52;;;;;;;20.26;78.80;99977.66;1746852;81;25583;-71
2022/08/19 03:10:46;;;;;;;19.37;16.80;;;;;;;20.24;78.92;99978.63;1731568;82;27487;-71
2022/08/19 03:16:05;;;;;;;22.50;16.93;;;;;;;20.21;79.23;99978.02;1666457;86;25662;-70
2022/08/19 03:18:31;;;;;;;21.68;16.82;;;;;;;20.18;79.23;99978.80;1651563;86;26278;-70
2022/08/19 03:20:58;;;;;;;18.57;16.00;;;;;;;20.15;79.36;99976.22;1659033;86;25550;-71
2022/08/19 03:23:24;;;;;;;18.75;16.77;;;;;;;20.13;79.38;99977.97;1659037;86;27641;-71
2022/08/19 03:25:53;;;;;;;22.30;16.30;;;;;;;20.12;79.60;99979.72;1658973;86;25759;-71
2022/08/19 03:28:20;;;;;;;22.58;16.70;;;;;;;20.11;79.67;99974.82;1659174;86;25710;-71
2022/08/19 03:31:11;;;;;;;18.95;17.00;;;;;;;20.10;79.77;99974.61;1658974;86;25756;-71
2022/08/19 03:33:37;;;;;;;22.07;16.35;;;;;;;20.10;79.80;99974.61;1658862;86;25659;-71
2022/08/19 03:36:15;;;;;;;21.07;15.70;;;;;;;20.10;79.96;99973.83;1659060;86;27656;-71
2022/08/19 03:38:48;;;;;;;21.97;16.25;;;;;;;20.09;80.08;99973.05;1659094;86;25638;-71
2022/08/19 03:41:18;;;;;;;23.38;17.17;;;;;;;20.09;80.21;99969.49;1658940;86;25494;-71
2022/08/19 03:43:49;;;;;;;18.02;16.10;;;;;;;20.11;80.25;99967.95;1659004;86;26357;-71
2022/08/19 03:46:20;;;;;;;20.85;16.82;;;;;;;20.14;80.45;99974.06;1655939;86;25837;-71
2022/08/19 03:48:48;;;;;;;21.17;16.05;;;;;;;20.14;80.67;99972.69;1666673;86;27543;-71
2022/08/19 03:51:19;;;;;;;21.27;16.02;;;;;;;20.17;80.55;99975.84;1680717;85;25553;-71
2022/08/19 03:53:47;;;;;;;23.75;16.55;;;;;;;20.18;80.70;99973.30;1680806;85;25262;-71
2022/08/19 03:56:13;;;;;;;20.88;16.62;;;;;;;20.20;80.72;99979.98;1680770;85;25570;-71
2022/08/19 03:58:40;;;;;;;22.50;18.92;;;;;;;20.23;80.76;99981.19;1680905;85;25594;-71
2022/08/19 04:01:12;;;;;;;19.17;16.90;;;;;;;20.25;80.92;99984.33;1680786;85;27701;-71
2022/08/19 04:03:40;;;;;;;20.70;16.55;;;;;;;20.27;80.92;99990.22;1680736;85;25783;-71
2022/08/19 04:06:20;;;;;;;21.60;16.95;;;;;;;20.31;80.93;99996.52;1680804;85;25585;-71
2022/08/19 04:08:51;;;;;;;19.37;15.72;;;;;;;20.33;81.08;99990.86;1680039;85;25547;-71
2022/08/19 04:11:21;;;;;;;20.45;16.82;;;;;;;20.36;81.21;99992.03;1680797;85;25491;-71
2022/08/19 04:13:50;;;;;;;23.35;16.82;;;;;;;20.40;81.24;99993.42;1735937;82;27475;-71
2022/08/19 04:16:19;;;;;;;20.05;15.43;;;;;;;20.43;81.21;99998.97;1711446;83;25622;-71
2022/08/19 04:18:47;;;;;;;21.10;16.27;;;;;;;20.46;81.26;99998.18;1711680;83;25550;-71
2022/08/19 04:21:21;;;;;;;18.67;15.55;;;;;;;20.50;81.40;99992.73;1711487;83;25486;-71
2022/08/19 04:23:48;;;;;;;22.02;16.77;;;;;;;20.53;81.42;99991.38;1711612;83;25644;-71
2022/08/19 04:26:19;;;;;;;20.05;15.58;;;;;;;20.58;81.44;99994.92;1711564;83;28266;-71
2022/08/19 04:28:46;;;;;;;21.30;16.62;;;;;;;20.61;81.44;99988.66;1711437;83;25618;-71
2022/08/19 04:31:16;;;;;;;25.50;16.00;;;;;;;20.64;81.47;99991.45;1711562;83;25608;-71
2022/08/19 04:33:42;;;;;;;18.27;15.78;;;;;;;20.68;81.52;99986.75;1711474;83;25667;-71
2022/08/19 04:36:16;;;;;;;19.80;16.82;;;;;;;20.75;81.63;99986.00;1711605;83;25411;-71
2022/08/19 04:38:43;;;;;;;17.05;15.25;;;;;;;20.80;81.60;99983.48;1711056;83;27556;-71
2022/08/19 04:43:53;;;;;;;22.50;17.17;;;;;;;20.92;81.72;99989.22;1711565;83;25416;-71
2022/08/19 04:46:20;;;;;;;20.25;16.23;;;;;;;20.99;81.70;99995.52;1711510;83;26165;-71
2022/08/19 04:48:46;;;;;;;18.27;15.83;;;;;;;21.05;81.73;99995.36;1711513;83;25435;-71
2022/08/19 04:51:13;;;;;;;21.73;15.40;;;;;;;21.13;81.87;99994.81;1711499;83;27535;-71
2022/08/19 04:53:42;;;;;;;17.25;15.08;;;;;;;21.22;81.63;99992.47;1711463;83;25446;-71
2022/08/19 04:56:14;;;;;;;20.47;15.37;;;;;;;21.32;81.65;99992.87;1711743;83;25433;-71
2022/08/19 04:58:43;;;;;;;18.62;15.68;;;;;;;21.42;81.77;99990.16;1711493;83;26238;-71
2022/08/19 05:01:20;;;;;;;17.42;15.32;;;;;;;21.53;81.95;99983.92;1711707;83;25527;-71
2022/08/19 05:03:47;;;;;;;20.55;15.55;;;;;;;21.64;81.63;99980.01;1711676;83;27613;-71
2022/08/19 05:06:16;;;;;;;18.90;13.88;;;;;;;21.76;81.25;99988.47;1711534;83;25784;-71
2022/08/19 05:08:43;;;;;;;;;;;;;;;21.88;80.81;99985.11;1714062;83;25599;-71
2022/08/19 05:11:18;;;;;;;17.65;14.13;;;;;;;21.98;80.83;99986.50;1711493;83;25712;-71
2022/08/19 05:13:45;;;;;;;20.80;14.03;;;;;;;22.11;80.50;99991.60;1711542;83;25688;-71
2022/08/19 05:16:14;;;;;;;15.28;13.83;;;;;;;22.22;79.76;99987.45;1698234;83;27595;-71
2022/08/19 05:24:12;;;;;;;21.68;13.90;;;;;;;22.60;79.54;99991.95;1696077;84;25603;-71
2022/08/19 05:26:42;;;;;;;21.93;15.03;;;;;;;22.71;79.08;99987.97;1696139;84;25407;-71
2022/08/19 05:29:10;;;;;;;16.60;13.05;;;;;;;22.86;79.13;99988.69;1696078;84;27583;-71
2022/08/19 05:31:38;;;;;;;15.88;12.15;;;;;;;22.98;78.05;99988.05;1696044;84;25721;-71
2022/08/19 05:34:06;;;;;;;17.85;13.43;;;;;;;23.10;78.01;99993.95;1696154;84;25409;-71
2022/08/19 05:36:40;;;;;;;15.78;11.90;;;;;;;23.23;77.45;100000.37;1696000;84;25479;-71
2022/08/19 05:39:11;;;;;;;14.70;12.07;;;;;;;23.36;76.92;100007.02;1696161;83;25414;-71
2022/08/19 05:41:44;;;;;;;14.58;12.93;;;;;;;23.46;76.38;100006.16;1696057;84;28176;-71
2022/08/19 05:44:10;;;;;;;13.40;12.05;;;;;;;23.62;76.31;100004.27;1696027;84;25402;-71
2022/08/19 05:46:39;;;;;;;16.10;13.18;;;;;;;23.79;75.71;100008.09;1696107;84;25674;-71
2022/08/19 05:49:07;;;;;;;15.40;12.50;;;;;;;23.95;75.04;100013.72;1696259;84;26205;-71
2022/08/19 05:51:35;;;;;;;15.78;12.55;;;;;;;24.08;74.68;100015.41;1697425;84;25599;-71
2022/08/19 05:54:04;;;;;;;16.60;12.15;;;;;;;24.22;74.31;100022.94;1698808;83;27460;-71
2022/08/19 05:56:30;;;;;;;16.30;12.07;;;;;;;24.37;74.08;100034.66;1698865;81;25756;-71
2022/08/19 05:58:58;;;;;;;19.42;11.83;;;;;;;24.51;73.65;100023.27;1699016;83;25446;-71
2022/08/19 06:01:26;;;;;;;19.75;12.15;;;;;;;24.63;72.99;100022.00;1698830;84;25450;-71
2022/08/19 06:03:53;;;;;;;13.30;11.88;;;;;;;24.75;72.61;100012.55;1698564;84;25188;-71
2022/08/19 06:06:21;;;;;;;13.30;11.48;;;;;;;24.93;72.66;100020.66;1696028;84;28009;-71
2022/08/19 06:08:49;;;;;;;14.43;12.07;;;;;;;25.08;72.20;100017.12;1695933;84;25773;-72
2022/08/19 06:11:36;;;;;;;16.12;11.83;;;;;;;25.25;71.17;100018.66;1696145;83;25751;-72
2022/08/19 06:14:09;;;;;;;15.23;11.38;;;;;;;25.36;70.04;100020.72;1670089;84;25589;-70
2022/08/19 06:16:39;;;;;;;15.00;11.53;;;;;;;25.48;70.39;100017.38;1696071;82;25486;-71
2022/08/19 06:19:10;;;;;;;16.07;11.78;;;;;;;25.68;70.83;100022.25;1696017;84;27532;-71
2022/08/19 06:21:40;;;;;;;15.60;11.45;;;;;;;25.86;70.07;100010.29;1695895;83;25788;-71
2022/08/19 06:24:11;;;;;;;14.47;11.65;;;;;;;26.07;70.11;100003.63;1669932;84;25530;-70
2022/08/19 06:26:41;;;;;;;14.90;11.95;;;;;;;26.31;69.63;100001.45;1696042;84;25649;-71
2022/08/19 06:29:12;;;;;;;13.22;11.68;;;;;;;26.54;69.24;100004.16;1696101;83;25605;-71
2022/08/19 06:31:46;;;;;;;14.83;11.80;;;;;;;26.78;68.07;100009.67;1696075;84;28080;-71
2022/08/19 06:34:12;;;;;;;18.15;12.50;;;;;;;26.88;66.80;100012.05;1695956;84;25624;-71
2022/08/19 06:36:44;;;;;;;14.35;11.50;;;;;;;26.93;66.76;100010.94;1669965;84;25671;-71
2022/08/19 06:39:18;;;;;;;18.55;11.60;;;;;;;26.97;65.50;100010.28;1696284;84;25488;-71
2022/08/19 06:42:11;;;;;;;18.45;11.55;;;;;;;26.94;64.88;100012.52;1729595;82;25666;-72
2022/08/19 06:44:38;;;;;;;15.72;12.25;;;;;;;26.89;64.48;100015.80;1729255;83;27576;-72
2022/08/19 06:47:07;;;;;;;;;;;;;;;26.88;64.55;100014.22;1732144;83;25726;-72
2022/08/19 06:49:34;;;;;;;15.23;11.43;;;;;;;26.99;64.79;100013.40;1729721;83;25521;-70
2022/08/19 06:52:01;;;;;;;16.25;12.43;;;;;;;27.17;65.22;100011.61;1729518;83;25703;-70
2022/08/19 06:54:29;;;;;;;18.20;12.13;;;;;;;27.35;64.03;100016.81;1729606;83;25503;-71
2022/08/19 06:57:00;;;;;;;15.10;12.07;;;;;;;27.44;63.46;100011.28;1729760;83;27537;-71
2022/08/19 06:59:27;;;;;;;14.78;12.37;;;;;;;27.58;63.43;100014.52;1729466;83;25596;-70
2022/08/19 07:01:56;;;;;;;13.40;11.33;;;;;;;27.77;63.52;100017.66;1729572;83;25423;-70
2022/08/19 07:04:31;;;;;;;17.85;11.65;;;;;;;27.95;61.70;100018.62;1729638;83;25481;-70
2022/08/19 07:07:03;;;;;;;16.70;10.82;;;;;;;28.02;61.70;100025.39;1774370;80;25609;-71
2022/08/19 07:09:30;;;;;;;14.55;12.13;;;;;;;28.15;61.23;100028.88;1789799;80;27517;-70
2022/08/19 07:11:56;;;;;;;14.87;11.25;;;;;;;28.23;61.31;100025.47;1789824;80;25553;-70
2022/08/19 07:14:26;;;;;;;17.55;11.20;;;;;;;28.45;61.22;100020.71;1789875;80;25395;-70
2022/08/19 07:16:57;;;;;;;15.58;11.10;;;;;;;28.69;61.02;100021.30;1789843;80;25560;-70
2022/08/19 07:19:27;;;;;;;19.10;11.70;;;;;;;28.90;60.11;100017.73;1790586;79;25463;-71
2022/08/19 07:21:55;;;;;;;14.53;10.65;;;;;;;29.04;59.09;100026.42;1792401;78;27490;-70
2022/08/19 07:24:27;;;;;;;16.50;11.45;;;;;;;29.19;59.22;100019.09;1792667;78;25442;-71
2022/08/19 07:27:00;;;;;;;15.28;10.68;;;;;;;29.29;58.71;100014.42;1793066;76;25375;-71
2022/08/19 07:29:29;;;;;;;14.98;10.60;;;;;;;29.42;57.90;100023.54;1792776;79;25460;-70
2022/08/19 07:31:58;;;;;;;15.80;10.28;;;;;;;29.58;57.69;100032.42;1792874;79;25254;-71
2022/08/19 07:34:27;;;;;;;13.93;10.43;;;;;;;29.59;56.61;100029.19;1792857;76;27526;-71
2022/08/19 07:36:55;;;;;;;12.88;10.82;;;;;;;29.61;56.21;100032.92;1792497;80;26039;-71
2022/08/19 07:39:26;;;;;;;14.28;10.30;;;;;;;29.53;56.07;100026.02;1790396;80;25402;-71
2022/08/19 07:41:55;;;;;;;19.15;11.10;;;;;;;29.54;55.69;100021.98;1787490;80;25413;-71
2022/08/19 07:44:22;;;;;;;15.15;10.68;;;;;;;29.62;56.09;100010.16;1787261;80;25566;-70
2022/08/19 07:46:53;;;;;;;13.95;11.03;;;;;;;29.72;55.40;100012.44;1786977;80;27439;-71
2022/08/19 07:49:21;;;;;;;15.25;10.55;;;;;;;29.80;56.05;100003.28;1786863;80;25524;-70
2022/08/19 07:51:53;;;;;;;19.70;10.53;;;;;;;29.95;56.33;100009.13;1786944;80;25456;-70
2022/08/19 07:54:21;;;;;;;14.13;9.95;;;;;;;30.16;55.76;100005.63;1786900;80;26212;-70
2022/08/19 07:56:50;;;;;;;14.70;10.82;;;;;;;30.27;54.84;100010.83;1787008;80;25638;-70
2022/08/19 07:59:19;;;;;;;14.15;10.10;;;;;;;30.37;55.13;100017.92;1787208;80;27193;-70
2022/08/19 08:01:45;;;;;;;;;;;;;;;30.51;54.79;100022.39;1789502;80;25600;-71
2022/08/19 08:09:44;;;;;;;12.28;10.23;;;;;;;30.95;53.75;100015.25;1786946;80;25377;-71
2022/08/19 08:12:18;;;;;;;15.88;11.18;;;;;;;31.25;53.79;100018.66;1786928;80;28062;-71
2022/08/19 08:14:49;;;;;;;15.00;10.13;;;;;;;31.38;52.49;100011.59;1786860;80;25404;-71
2022/08/19 08:17:21;;;;;;;12.95;10.20;;;;;;;31.42;52.10;100018.44;1786979;80;25602;-71
2022/08/19 08:19:49;;;;;;;16.65;9.93;;;;;;;31.50;51.92;100015.55;1786763;80;25500;-71
2022/08/19 08:25:15;;;;;;;15.20;12.35;;;;;;;31.57;51.17;100009.67;1787092;80;27608;-71
2022/08/19 08:27:43;;;;;;;15.15;9.93;;;;;;;31.72;51.81;100016.06;1786848;80;25404;-71
2022/08/19 08:30:14;;;;;;;;;;;;;;;31.77;50.90;100009.27;1761004;80;25612;-71
2022/08/19 08:32:41;;;;;;;16.15;9.83;;;;;;;31.88;50.59;100015.80;1786887;80;25638;-71
2022/08/19 08:35:12;;;;;;;16.82;10.08;;;;;;;31.82;50.27;100019.03;1786939;80;25401;-71
2022/08/19 08:37:39;;;;;;;16.67;11.15;;;;;;;31.76;50.60;100008.33;1786915;80;28093;-71
2022/08/19 08:40:11;;;;;;;12.35;9.78;;;;;;;31.91;50.79;100010.69;1786815;80;25583;-71
2022/08/19 08:42:42;;;;;;;11.75;10.45;;;;;;;32.07;50.43;100020.05;1786709;80;25643;-71
2022/08/19 08:45:16;;;;;;;14.20;10.40;;;;;;;32.11;50.20;100013.67;1786784;80;26095;-71
2022/08/19 08:47:47;;;;;;;11.55;9.98;;;;;;;32.19;49.71;100021.92;1786657;80;25206;-71
2022/08/19 08:50:28;;;;;;;15.35;10.43;;;;;;;32.19;49.51;100020.52;1786852;80;27474;-71
2022/08/19 08:52:57;;;;;;;13.43;10.18;;;;;;;32.13;49.17;100006.98;1786155;80;25544;-71
2022/08/19 08:55:28;;;;;;;;;;;;;;;32.10;49.27;100012.14;1789567;80;25472;-71
2022/08/19 08:58:05;;;;;;;16.12;10.15;;;;;;;32.18;49.24;100016.16;1786937;80;25537;-71
2022/08/19 09:00:40;;;;;;;21.15;10.72;;;;;;;32.34;49.08;100010.27;1786918;80;25234;-71
2022/08/19 09:03:11;;;;;;;10.48;9.35;;;;;;;32.50;48.16;100021.76;1786899;80;27453;-71
2022/08/19 09:06:13;;;;;;;14.43;9.05;;;;;;;32.56;48.12;100026.13;1786493;80;25944;-71
2022/08/19 09:08:57;;;;;;;11.28;9.63;;;;;;;32.59;47.92;100021.00;1786905;80;25416;-71
2022/08/19 09:11:50;;;;;;;10.82;9.05;;;;;;;32.69;47.48;100027.37;1786307;80;26118;-71
2022/08/19 09:14:33;;;;;;;15.83;10.35;;;;;;;32.78;47.45;100034.38;1787033;80;25385;-71
2022/08/19 09:17:03;;;;;;;17.10;9.20;;;;;;;32.80;47.06;100035.31;1786913;80;28113;-71
2022/08/19 09:19:29;;;;;;;15.75;10.98;;;;;;;32.73;46.93;100037.17;1786681;80;25604;-71
2022/08/19 09:21:55;;;;;;;18.07;9.28;;;;;;;32.76;47.45;100043.24;1786859;80;25406;-71
2022/08/19 09:24:21;;;;;;;15.50;9.55;;;;;;;32.93;45.44;100047.08;1786776;80;26102;-71
2022/08/19 09:26:47;;;;;;;11.43;9.13;;;;;;;32.84;46.31;100035.91;1786915;80;25545;-71
2022/08/19 09:29:14;;;;;;;13.78;8.90;;;;;;;32.80;45.85;100035.31;1786841;80;27653;-71
2022/08/19 09:31:40;;;;;;;15.40;9.08;;;;;;;32.88;46.44;100032.31;1786768;80;25692;-71
2022/08/19 09:34:08;;;;;;;10.93;8.80;;;;;;;33.05;46.39;100027.94;1786832;80;25480;-71
2022/08/19 09:36:38;;;;;;;11.53;8.83;;;;;;;33.22;44.22;100021.98;1787072;80;25477;-71
2022/08/19 09:39:06;;;;;;;13.80;8.63;;;;;;;33.22;45.61;100038.19;1786956;80;25638;-71
2022/08/19 09:41:32;;;;;;;12.30;8.53;;;;;;;33.30;45.17;100038.61;1787338;80;27550;-71
2022/08/19 09:43:59;;;;;;;17.90;9.45;;;;;;;33.39;44.45;100031.58;1789796;80;25643;-71
2022/08/19 09:46:28;;;;;;;14.93;9.23;;;;;;;33.36;44.14;100012.91;1789940;80;25430;-71
2022/08/19 09:48:58;;;;;;;16.35;8.88;;;;;;;33.59;44.49;100059.67;1789873;80;25534;-71
